sensor_id;sensor_type;location;lat;lon;timestamp;P1;durP1;ratioP1;P2;durP2;ratioP2
59294;SDS011;45067;44.654;20.200;2023-07-16T00:01:00;13.18;;;8.38;;
59294;SDS011;45067;44.654;20.200;2023-07-16T00:03:26;12.13;;;8.55;;
59294;SDS011;45067;44.654;20.200;2023-07-16T00:05:53;13.10;;;8.10;;
59294;SDS011;45067;44.654;20.200;2023-07-16T00:11:25;13.45;;;8.65;;
59294;SDS011;45067;44.654;20.200;2023-07-16T00:13:51;11.57;;;8.10;;
59294;SDS011;45067;44.654;20.200;2023-07-16T00:16:17;15.27;;;8.65;;
59294;SDS011;45067;44.654;20.200;2023-07-16T00:18:44;11.68;;;8.75;;
59294;SDS011;45067;44.654;20.200;2023-07-16T00:21:10;16.00;;;9.48;;
59294;SDS011;45067;44.654;20.200;2023-07-16T00:23:36;10.32;;;8.80;;
59294;SDS011;45067;44.654;20.200;2023-07-16T00:26:02;12.02;;;8.73;;
59294;SDS011;45067;44.654;20.200;2023-07-16T00:28:29;12.70;;;9.25;;
59294;SDS011;45067;44.654;20.200;2023-07-16T00:30:55;12.48;;;8.50;;
59294;SDS011;45067;44.654;20.200;2023-07-16T00:33:21;13.95;;;9.10;;
59294;SDS011;45067;44.654;20.200;2023-07-16T00:35:48;13.73;;;9.38;;
59294;SDS011;45067;44.654;20.200;2023-07-16T00:41:18;16.45;;;8.73;;
59294;SDS011;45067;44.654;20.200;2023-07-16T00:43:44;15.05;;;8.57;;
59294;SDS011;45067;44.654;20.200;2023-07-16T00:46:10;13.00;;;9.07;;
59294;SDS011;45067;44.654;20.200;2023-07-16T00:48:36;15.70;;;8.98;;
59294;SDS011;45067;44.654;20.200;2023-07-16T00:51:03;14.20;;;9.13;;
59294;SDS011;45067;44.654;20.200;2023-07-16T00:56:33;12.38;;;8.93;;
59294;SDS011;45067;44.654;20.200;2023-07-16T00:58:59;12.15;;;8.88;;
59294;SDS011;45067;44.654;20.200;2023-07-16T01:01:25;12.15;;;8.57;;
59294;SDS011;45067;44.654;20.200;2023-07-16T01:03:51;12.30;;;9.23;;
59294;SDS011;45067;44.654;20.200;2023-07-16T01:06:20;11.93;;;9.60;;
59294;SDS011;45067;44.654;20.200;2023-07-16T01:11:14;14.30;;;9.10;;
59294;SDS011;45067;44.654;20.200;2023-07-16T01:13:41;16.38;;;8.98;;
59294;SDS011;45067;44.654;20.200;2023-07-16T01:16:17;16.92;;;8.98;;
59294;SDS011;45067;44.654;20.200;2023-07-16T01:18:43;14.23;;;8.75;;
59294;SDS011;45067;44.654;20.200;2023-07-16T01:21:09;13.65;;;9.50;;
59294;SDS011;45067;44.654;20.200;2023-07-16T01:27:02;13.00;;;9.00;;
59294;SDS011;45067;44.654;20.200;2023-07-16T01:29:35;12.27;;;9.73;;
59294;SDS011;45067;44.654;20.200;2023-07-16T01:32:03;16.02;;;9.60;;
59294;SDS011;45067;44.654;20.200;2023-07-16T01:34:31;15.23;;;9.20;;
59294;SDS011;45067;44.654;20.200;2023-07-16T01:36:58;13.57;;;9.60;;
59294;SDS011;45067;44.654;20.200;2023-07-16T01:39:24;15.85;;;9.35;;
59294;SDS011;45067;44.654;20.200;2023-07-16T01:41:51;12.00;;;8.85;;
59294;SDS011;45067;44.654;20.200;2023-07-16T01:44:17;13.65;;;9.85;;
59294;SDS011;45067;44.654;20.200;2023-07-16T01:46:43;13.70;;;10.15;;
59294;SDS011;45067;44.654;20.200;2023-07-16T01:49:09;13.32;;;9.20;;
59294;SDS011;45067;44.654;20.200;2023-07-16T01:51:35;12.63;;;9.68;;
59294;SDS011;45067;44.654;20.200;2023-07-16T01:54:02;11.65;;;9.48;;
59294;SDS011;45067;44.654;20.200;2023-07-16T01:56:28;18.08;;;9.82;;
59294;SDS011;45067;44.654;20.200;2023-07-16T01:58:54;16.23;;;9.77;;
59294;SDS011;45067;44.654;20.200;2023-07-16T02:01:20;14.00;;;9.40;;
59294;SDS011;45067;44.654;20.200;2023-07-16T02:03:47;12.35;;;9.63;;
59294;SDS011;45067;44.654;20.200;2023-07-16T02:06:13;13.68;;;9.45;;
59294;SDS011;45067;44.654;20.200;2023-07-16T02:11:42;13.63;;;9.70;;
59294;SDS011;45067;44.654;20.200;2023-07-16T02:14:08;13.07;;;9.38;;
59294;SDS011;45067;44.654;20.200;2023-07-16T02:16:35;23.63;;;10.52;;
59294;SDS011;45067;44.654;20.200;2023-07-16T02:19:01;15.68;;;10.75;;
59294;SDS011;45067;44.654;20.200;2023-07-16T02:21:27;16.13;;;9.57;;
59294;SDS011;45067;44.654;20.200;2023-07-16T02:26:56;15.88;;;10.52;;
59294;SDS011;45067;44.654;20.200;2023-07-16T02:29:22;13.40;;;10.00;;
59294;SDS011;45067;44.654;20.200;2023-07-16T02:31:48;14.70;;;10.65;;
59294;SDS011;45067;44.654;20.200;2023-07-16T02:34:14;12.85;;;10.00;;
59294;SDS011;45067;44.654;20.200;2023-07-16T02:36:40;14.48;;;10.70;;
59294;SDS011;45067;44.654;20.200;2023-07-16T02:39:06;12.70;;;9.35;;
59294;SDS011;45067;44.654;20.200;2023-07-16T02:41:32;14.45;;;10.48;;
59294;SDS011;45067;44.654;20.200;2023-07-16T02:44:00;14.25;;;9.60;;
59294;SDS011;45067;44.654;20.200;2023-07-16T02:46:26;17.48;;;9.85;;
59294;SDS011;45067;44.654;20.200;2023-07-16T02:48:55;14.73;;;9.50;;
59294;SDS011;45067;44.654;20.200;2023-07-16T02:51:21;12.32;;;9.65;;
59294;SDS011;45067;44.654;20.200;2023-07-16T02:56:50;13.63;;;9.48;;
59294;SDS011;45067;44.654;20.200;2023-07-16T02:59:16;16.33;;;10.85;;
59294;SDS011;45067;44.654;20.200;2023-07-16T03:01:43;15.95;;;11.90;;
59294;SDS011;45067;44.654;20.200;2023-07-16T03:04:09;18.42;;;15.23;;
59294;SDS011;45067;44.654;20.200;2023-07-16T03:06:35;15.27;;;12.55;;
59294;SDS011;45067;44.654;20.200;2023-07-16T03:12:04;16.42;;;13.90;;
59294;SDS011;45067;44.654;20.200;2023-07-16T03:14:31;22.15;;;15.93;;
59294;SDS011;45067;44.654;20.200;2023-07-16T03:16:57;21.90;;;13.35;;
59294;SDS011;45067;44.654;20.200;2023-07-16T03:19:23;15.73;;;10.85;;
59294;SDS011;45067;44.654;20.200;2023-07-16T03:21:49;14.65;;;11.25;;
59294;SDS011;45067;44.654;20.200;2023-07-16T03:27:18;14.98;;;11.38;;
59294;SDS011;45067;44.654;20.200;2023-07-16T03:29:44;16.27;;;10.40;;
59294;SDS011;45067;44.654;20.200;2023-07-16T03:32:10;15.70;;;10.95;;
59294;SDS011;45067;44.654;20.200;2023-07-16T03:34:36;13.40;;;9.90;;
59294;SDS011;45067;44.654;20.200;2023-07-16T03:37:03;13.85;;;10.10;;
59294;SDS011;45067;44.654;20.200;2023-07-16T03:39:29;12.50;;;10.23;;
59294;SDS011;45067;44.654;20.200;2023-07-16T03:41:58;15.95;;;10.95;;
59294;SDS011;45067;44.654;20.200;2023-07-16T03:44:24;17.08;;;10.52;;
59294;SDS011;45067;44.654;20.200;2023-07-16T03:46:52;16.25;;;10.35;;
59294;SDS011;45067;44.654;20.200;2023-07-16T03:49:18;15.00;;;9.82;;
59294;SDS011;45067;44.654;20.200;2023-07-16T03:51:44;18.67;;;9.80;;
59294;SDS011;45067;44.654;20.200;2023-07-16T03:57:14;14.88;;;10.07;;
59294;SDS011;45067;44.654;20.200;2023-07-16T03:59:40;16.05;;;11.02;;
59294;SDS011;45067;44.654;20.200;2023-07-16T04:02:06;17.38;;;10.73;;
59294;SDS011;45067;44.654;20.200;2023-07-16T04:04:32;17.88;;;10.57;;
59294;SDS011;45067;44.654;20.200;2023-07-16T04:06:58;19.08;;;10.95;;
59294;SDS011;45067;44.654;20.200;2023-07-16T04:12:28;17.58;;;10.52;;
59294;SDS011;45067;44.654;20.200;2023-07-16T04:14:55;16.75;;;10.48;;
59294;SDS011;45067;44.654;20.200;2023-07-16T04:17:22;16.67;;;10.25;;
59294;SDS011;45067;44.654;20.200;2023-07-16T04:19:48;15.70;;;10.00;;
59294;SDS011;45067;44.654;20.200;2023-07-16T04:22:14;14.68;;;10.73;;
59294;SDS011;45067;44.654;20.200;2023-07-16T04:24:40;16.58;;;10.18;;
59294;SDS011;45067;44.654;20.200;2023-07-16T04:27:06;16.55;;;10.18;;
59294;SDS011;45067;44.654;20.200;2023-07-16T04:29:32;19.88;;;11.63;;
59294;SDS011;45067;44.654;20.200;2023-07-16T04:31:58;17.35;;;11.32;;
59294;SDS011;45067;44.654;20.200;2023-07-16T04:34:24;19.05;;;12.35;;
59294;SDS011;45067;44.654;20.200;2023-07-16T04:36:50;15.43;;;11.25;;
59294;SDS011;45067;44.654;20.200;2023-07-16T04:42:20;16.20;;;10.07;;
59294;SDS011;45067;44.654;20.200;2023-07-16T04:44:46;14.20;;;9.75;;
59294;SDS011;45067;44.654;20.200;2023-07-16T04:47:12;19.98;;;12.02;;
59294;SDS011;45067;44.654;20.200;2023-07-16T04:49:38;15.07;;;11.48;;
59294;SDS011;45067;44.654;20.200;2023-07-16T04:52:04;14.13;;;10.98;;
59294;SDS011;45067;44.654;20.200;2023-07-16T04:57:34;15.38;;;11.02;;
59294;SDS011;45067;44.654;20.200;2023-07-16T05:00:00;17.55;;;11.65;;
59294;SDS011;45067;44.654;20.200;2023-07-16T05:02:27;17.23;;;11.07;;
59294;SDS011;45067;44.654;20.200;2023-07-16T05:04:53;13.23;;;10.65;;
59294;SDS011;45067;44.654;20.200;2023-07-16T05:07:19;18.35;;;11.60;;
59294;SDS011;45067;44.654;20.200;2023-07-16T05:12:49;14.95;;;11.05;;
59294;SDS011;45067;44.654;20.200;2023-07-16T05:15:15;15.07;;;11.20;;
59294;SDS011;45067;44.654;20.200;2023-07-16T05:17:41;17.38;;;11.98;;
59294;SDS011;45067;44.654;20.200;2023-07-16T05:20:07;18.10;;;10.73;;
59294;SDS011;45067;44.654;20.200;2023-07-16T05:22:37;13.73;;;10.45;;
59294;SDS011;45067;44.654;20.200;2023-07-16T05:25:03;14.85;;;10.30;;
59294;SDS011;45067;44.654;20.200;2023-07-16T05:27:29;13.73;;;11.02;;
59294;SDS011;45067;44.654;20.200;2023-07-16T05:29:55;14.88;;;11.82;;
59294;SDS011;45067;44.654;20.200;2023-07-16T05:32:21;16.63;;;10.70;;
59294;SDS011;45067;44.654;20.200;2023-07-16T05:34:48;16.60;;;12.02;;
59294;SDS011;45067;44.654;20.200;2023-07-16T05:37:14;18.48;;;11.07;;
59294;SDS011;45067;44.654;20.200;2023-07-16T05:42:43;16.48;;;11.50;;
59294;SDS011;45067;44.654;20.200;2023-07-16T05:45:09;15.95;;;9.27;;
59294;SDS011;45067;44.654;20.200;2023-07-16T05:47:35;11.90;;;9.82;;
59294;SDS011;45067;44.654;20.200;2023-07-16T05:50:02;15.70;;;9.70;;
59294;SDS011;45067;44.654;20.200;2023-07-16T05:52:28;12.35;;;10.18;;
59294;SDS011;45067;44.654;20.200;2023-07-16T05:57:57;13.32;;;10.57;;
59294;SDS011;45067;44.654;20.200;2023-07-16T06:00:23;11.27;;;9.07;;
59294;SDS011;45067;44.654;20.200;2023-07-16T06:02:49;11.18;;;9.13;;
59294;SDS011;45067;44.654;20.200;2023-07-16T06:05:16;13.00;;;9.48;;
59294;SDS011;45067;44.654;20.200;2023-07-16T06:07:42;12.90;;;9.68;;
59294;SDS011;45067;44.654;20.200;2023-07-16T06:10:08;13.00;;;9.35;;
59294;SDS011;45067;44.654;20.200;2023-07-16T06:12:34;12.20;;;8.80;;
59294;SDS011;45067;44.654;20.200;2023-07-16T06:15:00;14.82;;;9.35;;
59294;SDS011;45067;44.654;20.200;2023-07-16T06:17:27;13.00;;;9.00;;
59294;SDS011;45067;44.654;20.200;2023-07-16T06:19:53;12.70;;;9.50;;
59294;SDS011;45067;44.654;20.200;2023-07-16T06:22:19;11.13;;;8.30;;
59294;SDS011;45067;44.654;20.200;2023-07-16T06:27:48;14.35;;;9.38;;
59294;SDS011;45067;44.654;20.200;2023-07-16T06:30:14;11.30;;;8.85;;
59294;SDS011;45067;44.654;20.200;2023-07-16T06:32:40;11.40;;;8.55;;
59294;SDS011;45067;44.654;20.200;2023-07-16T06:35:07;13.80;;;9.18;;
59294;SDS011;45067;44.654;20.200;2023-07-16T06:37:34;10.10;;;8.45;;
59294;SDS011;45067;44.654;20.200;2023-07-16T06:43:03;10.93;;;9.10;;
59294;SDS011;45067;44.654;20.200;2023-07-16T06:45:30;12.60;;;8.25;;
59294;SDS011;45067;44.654;20.200;2023-07-16T06:47:56;12.20;;;8.70;;
59294;SDS011;45067;44.654;20.200;2023-07-16T06:50:22;13.45;;;9.55;;
59294;SDS011;45067;44.654;20.200;2023-07-16T06:52:48;12.27;;;10.23;;
59294;SDS011;45067;44.654;20.200;2023-07-16T06:58:17;13.52;;;9.57;;
59294;SDS011;45067;44.654;20.200;2023-07-16T07:00:43;10.75;;;8.82;;
59294;SDS011;45067;44.654;20.200;2023-07-16T07:03:10;13.45;;;9.27;;
59294;SDS011;45067;44.654;20.200;2023-07-16T07:05:36;13.10;;;9.00;;
59294;SDS011;45067;44.654;20.200;2023-07-16T07:08:02;10.57;;;8.93;;
59294;SDS011;45067;44.654;20.200;2023-07-16T07:10:28;13.02;;;9.00;;
59294;SDS011;45067;44.654;20.200;2023-07-16T07:12:54;13.65;;;9.20;;
59294;SDS011;45067;44.654;20.200;2023-07-16T07:15:20;12.52;;;8.55;;
59294;SDS011;45067;44.654;20.200;2023-07-16T07:17:46;14.27;;;9.05;;
59294;SDS011;45067;44.654;20.200;2023-07-16T07:20:13;11.00;;;8.88;;
59294;SDS011;45067;44.654;20.200;2023-07-16T07:22:39;12.60;;;7.90;;
59294;SDS011;45067;44.654;20.200;2023-07-16T07:28:09;12.68;;;8.80;;
59294;SDS011;45067;44.654;20.200;2023-07-16T07:30:36;11.95;;;8.77;;
59294;SDS011;45067;44.654;20.200;2023-07-16T07:33:02;11.30;;;8.85;;
59294;SDS011;45067;44.654;20.200;2023-07-16T07:35:28;11.65;;;8.90;;
59294;SDS011;45067;44.654;20.200;2023-07-16T07:37:54;12.23;;;9.15;;
59294;SDS011;45067;44.654;20.200;2023-07-16T07:43:24;10.80;;;8.73;;
59294;SDS011;45067;44.654;20.200;2023-07-16T07:45:50;16.23;;;9.60;;
59294;SDS011;45067;44.654;20.200;2023-07-16T07:48:17;13.05;;;8.52;;
59294;SDS011;45067;44.654;20.200;2023-07-16T07:50:43;13.98;;;10.50;;
59294;SDS011;45067;44.654;20.200;2023-07-16T07:53:11;21.02;;;12.18;;
59294;SDS011;45067;44.654;20.200;2023-07-16T07:55:39;11.85;;;9.68;;
59294;SDS011;45067;44.654;20.200;2023-07-16T07:58:07;12.73;;;9.77;;
59294;SDS011;45067;44.654;20.200;2023-07-16T08:00:33;13.20;;;9.05;;
59294;SDS011;45067;44.654;20.200;2023-07-16T08:02:59;12.30;;;9.20;;
59294;SDS011;45067;44.654;20.200;2023-07-16T08:05:25;13.15;;;9.43;;
59294;SDS011;45067;44.654;20.200;2023-07-16T08:07:51;12.20;;;9.07;;
59294;SDS011;45067;44.654;20.200;2023-07-16T08:10:18;18.15;;;10.25;;
59294;SDS011;45067;44.654;20.200;2023-07-16T08:12:44;11.52;;;9.40;;
59294;SDS011;45067;44.654;20.200;2023-07-16T08:15:11;12.23;;;8.85;;
59294;SDS011;45067;44.654;20.200;2023-07-16T08:17:43;14.05;;;9.52;;
59294;SDS011;45067;44.654;20.200;2023-07-16T08:20:10;20.67;;;10.77;;
59294;SDS011;45067;44.654;20.200;2023-07-16T08:22:37;13.48;;;8.88;;
59294;SDS011;45067;44.654;20.200;2023-07-16T08:25:03;13.38;;;8.63;;
59294;SDS011;45067;44.654;20.200;2023-07-16T08:27:29;14.48;;;9.60;;
59294;SDS011;45067;44.654;20.200;2023-07-16T08:29:55;11.35;;;9.32;;
59294;SDS011;45067;44.654;20.200;2023-07-16T08:32:22;13.43;;;10.05;;
59294;SDS011;45067;44.654;20.200;2023-07-16T08:34:48;13.70;;;9.70;;
59294;SDS011;45067;44.654;20.200;2023-07-16T08:37:14;18.20;;;9.93;;
59294;SDS011;45067;44.654;20.200;2023-07-16T08:42:44;11.93;;;9.43;;
59294;SDS011;45067;44.654;20.200;2023-07-16T08:45:11;11.60;;;9.65;;
59294;SDS011;45067;44.654;20.200;2023-07-16T08:47:37;13.77;;;10.05;;
59294;SDS011;45067;44.654;20.200;2023-07-16T08:50:03;17.80;;;10.05;;
59294;SDS011;45067;44.654;20.200;2023-07-16T08:52:29;12.85;;;9.63;;
59294;SDS011;45067;44.654;20.200;2023-07-16T08:54:56;15.45;;;9.70;;
59294;SDS011;45067;44.654;20.200;2023-07-16T08:57:22;14.32;;;9.98;;
59294;SDS011;45067;44.654;20.200;2023-07-16T08:59:49;11.20;;;9.70;;
59294;SDS011;45067;44.654;20.200;2023-07-16T09:02:19;13.25;;;9.38;;
59294;SDS011;45067;44.654;20.200;2023-07-16T09:04:46;13.90;;;10.52;;
59294;SDS011;45067;44.654;20.200;2023-07-16T09:07:13;15.30;;;9.88;;
59294;SDS011;45067;44.654;20.200;2023-07-16T09:09:39;13.10;;;9.38;;
59294;SDS011;45067;44.654;20.200;2023-07-16T09:12:05;12.05;;;9.52;;
59294;SDS011;45067;44.654;20.200;2023-07-16T09:14:31;17.60;;;10.52;;
59294;SDS011;45067;44.654;20.200;2023-07-16T09:16:57;63.45;;;15.25;;
59294;SDS011;45067;44.654;20.200;2023-07-16T09:19:24;40.08;;;12.88;;
59294;SDS011;45067;44.654;20.200;2023-07-16T09:21:51;21.10;;;10.30;;
59294;SDS011;45067;44.654;20.200;2023-07-16T09:24:27;31.65;;;11.55;;
59294;SDS011;45067;44.654;20.200;2023-07-16T09:26:54;12.00;;;9.60;;
59294;SDS011;45067;44.654;20.200;2023-07-16T09:29:22;13.07;;;10.40;;
59294;SDS011;45067;44.654;20.200;2023-07-16T09:34:20;14.60;;;9.73;;
59294;SDS011;45067;44.654;20.200;2023-07-16T09:36:47;14.57;;;10.52;;
59294;SDS011;45067;44.654;20.200;2023-07-16T09:39:16;15.73;;;10.10;;
59294;SDS011;45067;44.654;20.200;2023-07-16T09:41:43;15.43;;;10.68;;
59294;SDS011;45067;44.654;20.200;2023-07-16T09:44:10;13.82;;;9.68;;
59294;SDS011;45067;44.654;20.200;2023-07-16T09:46:37;15.25;;;9.95;;
59294;SDS011;45067;44.654;20.200;2023-07-16T09:49:03;13.15;;;9.80;;
59294;SDS011;45067;44.654;20.200;2023-07-16T09:51:30;14.80;;;9.73;;
59294;SDS011;45067;44.654;20.200;2023-07-16T09:56:48;12.07;;;9.80;;
59294;SDS011;45067;44.654;20.200;2023-07-16T09:59:16;12.07;;;9.00;;
59294;SDS011;45067;44.654;20.200;2023-07-16T10:01:42;11.13;;;9.45;;
59294;SDS011;45067;44.654;20.200;2023-07-16T10:04:18;12.52;;;9.38;;
59294;SDS011;45067;44.654;20.200;2023-07-16T10:06:59;12.60;;;9.25;;
59294;SDS011;45067;44.654;20.200;2023-07-16T10:09:42;13.88;;;9.60;;
59294;SDS011;45067;44.654;20.200;2023-07-16T10:12:16;13.50;;;10.30;;
59294;SDS011;45067;44.654;20.200;2023-07-16T10:17:12;11.88;;;9.63;;
59294;SDS011;45067;44.654;20.200;2023-07-16T10:19:52;13.10;;;10.70;;
59294;SDS011;45067;44.654;20.200;2023-07-16T10:22:30;12.07;;;10.30;;
59294;SDS011;45067;44.654;20.200;2023-07-16T10:25:02;12.63;;;10.75;;
59294;SDS011;45067;44.654;20.200;2023-07-16T10:27:35;18.13;;;11.95;;
59294;SDS011;45067;44.654;20.200;2023-07-16T10:30:02;17.00;;;10.63;;
59294;SDS011;45067;44.654;20.200;2023-07-16T10:32:30;11.93;;;9.73;;
59294;SDS011;45067;44.654;20.200;2023-07-16T10:34:56;12.82;;;10.45;;
59294;SDS011;45067;44.654;20.200;2023-07-16T10:37:23;14.48;;;11.68;;
59294;SDS011;45067;44.654;20.200;2023-07-16T10:39:53;14.82;;;11.38;;
59294;SDS011;45067;44.654;20.200;2023-07-16T10:42:20;16.25;;;11.35;;
59294;SDS011;45067;44.654;20.200;2023-07-16T10:44:49;15.60;;;10.88;;
59294;SDS011;45067;44.654;20.200;2023-07-16T10:47:22;14.25;;;12.18;;
59294;SDS011;45067;44.654;20.200;2023-07-16T10:49:49;12.98;;;11.48;;
59294;SDS011;45067;44.654;20.200;2023-07-16T10:52:17;14.35;;;12.05;;
59294;SDS011;45067;44.654;20.200;2023-07-16T10:54:43;16.70;;;11.43;;
59294;SDS011;45067;44.654;20.200;2023-07-16T10:59:45;16.75;;;13.82;;
59294;SDS011;45067;44.654;20.200;2023-07-16T11:02:13;14.82;;;12.57;;
59294;SDS011;45067;44.654;20.200;2023-07-16T11:04:40;16.10;;;11.95;;
59294;SDS011;45067;44.654;20.200;2023-07-16T11:07:07;15.73;;;11.70;;
59294;SDS011;45067;44.654;20.200;2023-07-16T11:09:34;13.23;;;11.88;;
59294;SDS011;45067;44.654;20.200;2023-07-16T11:12:07;16.77;;;12.57;;
59294;SDS011;45067;44.654;20.200;2023-07-16T11:14:33;14.55;;;12.32;;
59294;SDS011;45067;44.654;20.200;2023-07-16T11:17:06;14.95;;;11.95;;
59294;SDS011;45067;44.654;20.200;2023-07-16T11:19:33;15.10;;;12.68;;
59294;SDS011;45067;44.654;20.200;2023-07-16T11:22:00;16.63;;;13.65;;
59294;SDS011;45067;44.654;20.200;2023-07-16T11:24:26;17.85;;;13.40;;
59294;SDS011;45067;44.654;20.200;2023-07-16T11:26:56;14.13;;;12.63;;
59294;SDS011;45067;44.654;20.200;2023-07-16T11:29:23;14.85;;;12.85;;
59294;SDS011;45067;44.654;20.200;2023-07-16T11:31:52;16.17;;;12.90;;
59294;SDS011;45067;44.654;20.200;2023-07-16T11:34:21;16.00;;;13.23;;
59294;SDS011;45067;44.654;20.200;2023-07-16T11:36:48;15.00;;;12.75;;
59294;SDS011;45067;44.654;20.200;2023-07-16T11:39:14;17.67;;;12.60;;
59294;SDS011;45067;44.654;20.200;2023-07-16T11:41:41;17.10;;;13.23;;
59294;SDS011;45067;44.654;20.200;2023-07-16T11:44:07;17.60;;;13.90;;
59294;SDS011;45067;44.654;20.200;2023-07-16T11:46:34;25.05;;;14.80;;
59294;SDS011;45067;44.654;20.200;2023-07-16T11:49:00;19.10;;;15.15;;
59294;SDS011;45067;44.654;20.200;2023-07-16T11:51:26;19.00;;;15.32;;
59294;SDS011;45067;44.654;20.200;2023-07-16T11:53:53;18.17;;;16.27;;
59294;SDS011;45067;44.654;20.200;2023-07-16T11:56:19;16.20;;;14.48;;
59294;SDS011;45067;44.654;20.200;2023-07-16T11:58:46;17.83;;;14.77;;
59294;SDS011;45067;44.654;20.200;2023-07-16T12:01:12;16.80;;;15.00;;
59294;SDS011;45067;44.654;20.200;2023-07-16T12:03:39;21.80;;;16.05;;
59294;SDS011;45067;44.654;20.200;2023-07-16T12:06:06;22.33;;;15.68;;
59294;SDS011;45067;44.654;20.200;2023-07-16T12:08:33;18.90;;;15.10;;
59294;SDS011;45067;44.654;20.200;2023-07-16T12:11:17;21.20;;;16.52;;
59294;SDS011;45067;44.654;20.200;2023-07-16T12:13:44;19.40;;;15.10;;
59294;SDS011;45067;44.654;20.200;2023-07-16T12:16:10;18.65;;;14.68;;
59294;SDS011;45067;44.654;20.200;2023-07-16T12:18:36;18.65;;;15.80;;
59294;SDS011;45067;44.654;20.200;2023-07-16T12:21:02;18.52;;;14.75;;
59294;SDS011;45067;44.654;20.200;2023-07-16T12:23:28;17.48;;;15.63;;
59294;SDS011;45067;44.654;20.200;2023-07-16T12:25:54;17.50;;;15.65;;
59294;SDS011;45067;44.654;20.200;2023-07-16T12:28:20;19.20;;;15.25;;
59294;SDS011;45067;44.654;20.200;2023-07-16T12:30:46;18.35;;;16.45;;
59294;SDS011;45067;44.654;20.200;2023-07-16T12:33:12;21.23;;;19.13;;
59294;SDS011;45067;44.654;20.200;2023-07-16T12:35:38;16.08;;;14.30;;
59294;SDS011;45067;44.654;20.200;2023-07-16T12:38:05;16.77;;;14.77;;
59294;SDS011;45067;44.654;20.200;2023-07-16T12:40:31;17.52;;;14.90;;
59294;SDS011;45067;44.654;20.200;2023-07-16T12:42:57;20.40;;;17.13;;
59294;SDS011;45067;44.654;20.200;2023-07-16T12:45:23;22.95;;;19.50;;
59294;SDS011;45067;44.654;20.200;2023-07-16T12:47:49;23.25;;;20.90;;
59294;SDS011;45067;44.654;20.200;2023-07-16T12:50:15;27.15;;;23.65;;
59294;SDS011;45067;44.654;20.200;2023-07-16T12:52:42;23.58;;;21.33;;
59294;SDS011;45067;44.654;20.200;2023-07-16T12:55:11;22.77;;;20.58;;
59294;SDS011;45067;44.654;20.200;2023-07-16T12:57:38;22.25;;;20.15;;
59294;SDS011;45067;44.654;20.200;2023-07-16T13:00:05;22.00;;;19.75;;
59294;SDS011;45067;44.654;20.200;2023-07-16T13:02:34;23.52;;;21.33;;
59294;SDS011;45067;44.654;20.200;2023-07-16T13:05:01;24.58;;;22.45;;
59294;SDS011;45067;44.654;20.200;2023-07-16T13:07:27;24.77;;;22.52;;
59294;SDS011;45067;44.654;20.200;2023-07-16T13:09:53;25.52;;;22.90;;
59294;SDS011;45067;44.654;20.200;2023-07-16T13:12:19;27.00;;;24.60;;
59294;SDS011;45067;44.654;20.200;2023-07-16T13:14:45;28.30;;;25.70;;
59294;SDS011;45067;44.654;20.200;2023-07-16T13:17:11;29.15;;;26.42;;
59294;SDS011;45067;44.654;20.200;2023-07-16T13:19:37;27.90;;;25.02;;
59294;SDS011;45067;44.654;20.200;2023-07-16T13:22:03;30.23;;;27.15;;
59294;SDS011;45067;44.654;20.200;2023-07-16T13:24:30;30.75;;;27.55;;
59294;SDS011;45067;44.654;20.200;2023-07-16T13:26:56;29.88;;;27.13;;
59294;SDS011;45067;44.654;20.200;2023-07-16T13:29:22;32.03;;;29.02;;
59294;SDS011;45067;44.654;20.200;2023-07-16T13:31:48;30.02;;;27.30;;
59294;SDS011;45067;44.654;20.200;2023-07-16T13:34:14;31.58;;;28.63;;
59294;SDS011;45067;44.654;20.200;2023-07-16T13:36:40;36.55;;;33.13;;
59294;SDS011;45067;44.654;20.200;2023-07-16T13:39:06;32.13;;;29.00;;
59294;SDS011;45067;44.654;20.200;2023-07-16T13:41:33;32.42;;;29.38;;
59294;SDS011;45067;44.654;20.200;2023-07-16T13:43:59;31.00;;;28.17;;
59294;SDS011;45067;44.654;20.200;2023-07-16T13:46:25;32.20;;;29.20;;
59294;SDS011;45067;44.654;20.200;2023-07-16T13:48:52;32.63;;;29.60;;
59294;SDS011;45067;44.654;20.200;2023-07-16T13:51:18;32.67;;;29.63;;
59294;SDS011;45067;44.654;20.200;2023-07-16T13:53:45;30.33;;;27.45;;
59294;SDS011;45067;44.654;20.200;2023-07-16T13:56:11;32.50;;;29.60;;
59294;SDS011;45067;44.654;20.200;2023-07-16T13:58:37;33.15;;;29.98;;
59294;SDS011;45067;44.654;20.200;2023-07-16T14:01:03;32.90;;;29.75;;
59294;SDS011;45067;44.654;20.200;2023-07-16T14:03:29;33.13;;;30.27;;
59294;SDS011;45067;44.654;20.200;2023-07-16T14:05:55;30.00;;;27.15;;
59294;SDS011;45067;44.654;20.200;2023-07-16T14:08:21;35.42;;;32.15;;
59294;SDS011;45067;44.654;20.200;2023-07-16T14:10:57;29.75;;;27.00;;
59294;SDS011;45067;44.654;20.200;2023-07-16T14:13:23;30.15;;;27.65;;
59294;SDS011;45067;44.654;20.200;2023-07-16T14:15:49;30.77;;;27.88;;
59294;SDS011;45067;44.654;20.200;2023-07-16T14:18:15;30.15;;;27.48;;
59294;SDS011;45067;44.654;20.200;2023-07-16T14:20:41;29.27;;;26.50;;
59294;SDS011;45067;44.654;20.200;2023-07-16T14:23:07;27.77;;;25.27;;
59294;SDS011;45067;44.654;20.200;2023-07-16T14:25:37;37.55;;;34.20;;
59294;SDS011;45067;44.654;20.200;2023-07-16T14:30:29;29.38;;;26.50;;
59294;SDS011;45067;44.654;20.200;2023-07-16T14:32:55;27.92;;;25.05;;
59294;SDS011;45067;44.654;20.200;2023-07-16T14:35:21;29.95;;;27.25;;
59294;SDS011;45067;44.654;20.200;2023-07-16T14:37:48;30.58;;;27.45;;
59294;SDS011;45067;44.654;20.200;2023-07-16T14:40:14;29.25;;;26.65;;
59294;SDS011;45067;44.654;20.200;2023-07-16T14:42:40;28.80;;;26.05;;
59294;SDS011;45067;44.654;20.200;2023-07-16T14:45:08;29.02;;;26.08;;
59294;SDS011;45067;44.654;20.200;2023-07-16T14:47:34;29.80;;;26.70;;
59294;SDS011;45067;44.654;20.200;2023-07-16T14:50:00;27.25;;;24.60;;
59294;SDS011;45067;44.654;20.200;2023-07-16T14:52:26;24.55;;;22.35;;
59294;SDS011;45067;44.654;20.200;2023-07-16T14:54:53;25.80;;;23.30;;
59294;SDS011;45067;44.654;20.200;2023-07-16T15:00:23;26.92;;;24.40;;
59294;SDS011;45067;44.654;20.200;2023-07-16T15:02:50;25.52;;;23.17;;
59294;SDS011;45067;44.654;20.200;2023-07-16T15:05:17;26.13;;;23.73;;
59294;SDS011;45067;44.654;20.200;2023-07-16T15:07:43;28.08;;;25.50;;
59294;SDS011;45067;44.654;20.200;2023-07-16T15:10:09;26.77;;;24.25;;
59294;SDS011;45067;44.654;20.200;2023-07-16T15:15:39;25.60;;;23.27;;
59294;SDS011;45067;44.654;20.200;2023-07-16T15:18:07;26.05;;;23.83;;
59294;SDS011;45067;44.654;20.200;2023-07-16T15:20:33;25.65;;;23.25;;
59294;SDS011;45067;44.654;20.200;2023-07-16T15:22:59;24.00;;;21.58;;
59294;SDS011;45067;44.654;20.200;2023-07-16T15:25:25;25.30;;;22.90;;
59294;SDS011;45067;44.654;20.200;2023-07-16T15:27:51;24.35;;;21.42;;
59294;SDS011;45067;44.654;20.200;2023-07-16T15:30:17;23.60;;;21.10;;
59294;SDS011;45067;44.654;20.200;2023-07-16T15:32:43;20.48;;;18.48;;
59294;SDS011;45067;44.654;20.200;2023-07-16T15:35:09;21.65;;;19.65;;
59294;SDS011;45067;44.654;20.200;2023-07-16T15:37:35;22.58;;;20.42;;
59294;SDS011;45067;44.654;20.200;2023-07-16T15:40:11;21.88;;;19.77;;